If you wish to contribute or participate in the discussions about articles you are invited to join SKYbrary as a registered user

 Actions

Krakow International Airport

From SKYbrary Wiki

EPKK
Airport
ICAO: EPKK – IATA: KRK
Summary
Name Krakow International Airport
Region Europe
Territory Poland PL.gif
Location Balice, Lesser Poland
Serving Krakow
Elevation 241.097 m
791 ft
791 ft241.097 m
Coordinates 50° 4' 40.00" N, 19° 47' 5.00" E
Runways
Designator Length Width Surface ROPS
7/25 2550 m8,366.142 ft
60 m196.85 ft
CON yes/yes


METAR
Observation EPKK 221000Z 05011KT 9999 SCT010 06/04 Q1017
Station Krakow
Date/Time 22 November 2019 10:00:00
Wind direction 50°
Wind speed 11 kts
Lowest cloud amount scattered clouds
Temperature 6°C
Dew point 4°C
Humidity 86%
QNH 1017 hPa
Weather condition n/a

WX
Tag(s) Fog
Fohn Effect

International airport serving Krakow, Poland.

Climatology

Temperate Marine climate/Oceanic climate (Köppen climate classification Cfb) - Moderately cool summer and comparatively warm winter with a temperature range of only 14°C57.2 °F
287.15 K
516.87 °R
.

Krakow is one of the easternmost localities in Europe to have an oceanic climate. Krakow lies near the Tatra Mountains, and there is often a Föhn wind, when the temperature rises rapidly, and even in winter reaches to 20°C68 °F
293.15 K
527.67 °R
.

Maps

Terrain

Loading map...

Airport Layout

Loading map...



Accidents & Serious Incidents at or in vicinity of EPKK

None on SKYbrary